Time;durP1;ratioP1;P1;durP2;ratioP2;P2;SDS_P1;SDS_P2;PMS_P1;PMS_P2;Temp;Humidity;BMP_temperature;BMP_pressure;BME280_temperature;BME280_humidity;BME280_pressure;Samples;Min_cycle;Max_cycle;Signal;HPM_P1;HPM_P2
2022/09/21 00:02:01;;;;;;;2.23;1.47;;;11.60;99.90;;;;;;5013777;28;20207;-78
2022/09/21 00:04:28;;;;;;;2.67;1.90;;;11.60;99.90;;;;;;5015603;28;20608;-78
2022/09/21 00:06:55;;;;;;;3.27;1.57;;;11.50;99.90;;;;;;5014420;28;20216;-78
2022/09/21 00:09:22;;;;;;;3.67;1.87;;;11.50;99.90;;;;;;5019658;28;20289;-79
2022/09/21 00:11:49;;;;;;;2.93;2.07;;;11.50;99.90;;;;;;5011758;28;20211;-78
2022/09/21 00:14:18;;;;;;;2.63;1.83;;;11.40;99.90;;;;;;5019926;28;20218;-78
2022/09/21 00:16:45;;;;;;;2.67;2.00;;;11.40;99.90;;;;;;5018469;28;20641;-78
2022/09/21 00:19:12;;;;;;;4.13;2.30;;;11.40;99.90;;;;;;5015814;28;20223;-79
2022/09/21 00:21:40;;;;;;;2.70;1.90;;;11.40;99.90;;;;;;5024873;28;20298;-78
2022/09/21 00:24:07;;;;;;;2.53;2.00;;;11.40;99.90;;;;;;5015950;28;20218;-79
2022/09/21 00:26:34;;;;;;;3.70;1.57;;;11.30;99.90;;;;;;5024014;28;20246;-77
2022/09/21 00:29:03;;;;;;;2.33;1.90;;;11.30;99.90;;;;;;5015829;28;20266;-78
2022/09/21 00:31:32;;;;;;;2.87;1.77;;;11.30;99.90;;;;;;5020021;28;20539;-77
2022/09/21 00:34:02;;;;;;;2.37;1.70;;;11.30;99.90;;;;;;5018529;28;20215;-79
2022/09/21 00:36:29;;;;;;;4.43;2.30;;;11.30;99.90;;;;;;5020449;28;20506;-78
2022/09/21 00:38:59;;;;;;;2.20;1.50;;;11.30;99.90;;;;;;5015903;28;20273;-79
2022/09/21 00:41:28;;;;;;;2.77;1.90;;;11.20;99.90;;;;;;5016148;28;20215;-78
2022/09/21 00:44:21;;;;;;;3.60;1.83;;;11.20;99.90;;;;;;5022129;28;20222;-78
2022/09/21 00:46:52;;;;;;;2.73;1.80;;;11.20;99.90;;;;;;5015639;28;20279;-78
2022/09/21 00:49:20;;;;;;;1.70;1.60;;;11.20;99.90;;;;;;5025442;28;20312;-79
2022/09/21 00:51:48;;;;;;;2.37;1.70;;;11.20;99.90;;;;;;5018309;28;20301;-77
2022/09/21 00:54:20;;;;;;;1.70;1.60;;;11.20;99.90;;;;;;5019641;28;20203;-78
2022/09/21 00:56:48;;;;;;;2.53;1.70;;;11.20;99.90;;;;;;5022838;28;20206;-76
2022/09/21 00:59:17;;;;;;;2.53;1.80;;;11.20;99.90;;;;;;5017940;28;20575;-77
2022/09/21 01:01:44;;;;;;;3.63;2.23;;;11.10;99.90;;;;;;5025342;28;20211;-75
2022/09/21 01:04:17;;;;;;;2.43;2.10;;;11.20;99.90;;;;;;5025253;28;20214;-76
2022/09/21 01:06:45;;;;;;;2.10;1.73;;;11.20;99.90;;;;;;5019394;28;20537;-77
2022/09/21 01:09:12;;;;;;;2.03;1.83;;;11.10;99.90;;;;;;5015968;28;20280;-76
2022/09/21 01:11:48;;;;;;;3.10;1.90;;;11.10;99.90;;;;;;5022057;28;20210;-76
2022/09/21 01:14:31;;;;;;;2.03;1.70;;;11.10;99.90;;;;;;5015750;28;20649;-76
2022/09/21 01:17:06;;;;;;;2.93;2.00;;;11.10;99.90;;;;;;5020951;28;20214;-77
2022/09/21 01:19:56;;;;;;;2.73;2.00;;;11.10;99.90;;;;;;5019564;28;20226;-77
2022/09/21 01:22:37;;;;;;;2.53;2.00;;;11.10;99.90;;;;;;5021829;28;20246;-76
2022/09/21 01:25:18;;;;;;;4.20;2.43;;;11.20;99.90;;;;;;5017711;28;20239;-77
2022/09/21 01:28:03;;;;;;;3.27;2.13;;;11.20;99.90;;;;;;5016145;28;20297;-77
2022/09/21 01:30:34;;;;;;;2.67;2.20;;;11.10;99.90;;;;;;5014166;28;20241;-78
2022/09/21 01:33:07;;;;;;;2.50;2.00;;;11.10;99.90;;;;;;5020438;28;20210;-77
2022/09/21 01:35:39;;;;;;;2.37;2.03;;;11.10;99.90;;;;;;5018528;28;20634;-77
2022/09/21 01:38:10;;;;;;;2.33;1.93;;;11.10;99.90;;;;;;5018105;28;20630;-76
2022/09/21 01:40:41;;;;;;;2.33;2.13;;;11.10;99.90;;;;;;5022582;28;20211;-76
2022/09/21 01:43:12;;;;;;;2.77;2.00;;;11.00;99.90;;;;;;5007705;28;20212;-75
2022/09/21 01:45:46;;;;;;;2.93;1.87;;;11.00;99.90;;;;;;5014658;28;20265;-78
2022/09/21 01:48:15;;;;;;;3.53;1.93;;;10.90;99.90;;;;;;5010629;28;20207;-78
2022/09/21 01:50:46;;;;;;;2.43;1.90;;;10.90;99.90;;;;;;5027241;28;20211;-78
2022/09/21 01:53:19;;;;;;;2.83;2.00;;;10.80;99.90;;;;;;5012131;28;21991;-77
2022/09/21 01:55:50;;;;;;;2.10;1.77;;;10.80;99.90;;;;;;5018156;28;20551;-80
2022/09/21 01:58:24;;;;;;;2.23;2.03;;;10.80;99.90;;;;;;5020323;28;20238;-77
2022/09/21 02:00:55;;;;;;;2.43;2.07;;;10.70;99.90;;;;;;5016740;28;20214;-78
2022/09/21 02:03:27;;;;;;;4.13;2.00;;;10.70;99.90;;;;;;5012169;28;20211;-77
2022/09/21 02:05:56;;;;;;;3.53;2.00;;;10.70;99.90;;;;;;5022007;28;20231;-77
2022/09/21 02:08:25;;;;;;;2.93;2.13;;;10.60;99.90;;;;;;5022200;28;20229;-78
2022/09/21 02:10:53;;;;;;;3.23;1.97;;;10.60;99.90;;;;;;5010550;28;20215;-79
2022/09/21 02:13:24;;;;;;;3.40;1.80;;;10.60;99.90;;;;;;5015898;28;20245;-79
2022/09/21 02:16:03;;;;;;;2.83;1.90;;;10.60;99.90;;;;;;5023423;28;20215;-78
2022/09/21 02:18:42;;;;;;;2.20;2.00;;;10.50;99.90;;;;;;5008608;28;20523;-78
2022/09/21 02:21:18;;;;;;;2.57;2.10;;;10.50;99.90;;;;;;5015629;28;20302;-78
2022/09/21 02:23:55;;;;;;;2.40;2.00;;;10.50;99.90;;;;;;5008449;28;20210;-78
2022/09/21 02:26:30;;;;;;;2.30;2.10;;;10.40;99.90;;;;;;5016203;28;20215;-78
2022/09/21 02:29:04;;;;;;;2.10;1.90;;;10.40;99.90;;;;;;5023317;28;20243;-78
2022/09/21 02:31:41;;;;;;;2.60;1.60;;;10.40;99.90;;;;;;5023800;28;20779;-78
2022/09/21 02:34:18;;;;;;;2.73;1.80;;;10.30;99.90;;;;;;5017691;28;20218;-77
2022/09/21 02:36:49;;;;;;;1.87;1.67;;;10.30;99.90;;;;;;5022419;28;20297;-77
2022/09/21 02:39:18;;;;;;;5.10;1.90;;;10.20;99.90;;;;;;5016786;28;20516;-77
2022/09/21 02:41:56;;;;;;;3.17;1.90;;;10.20;99.90;;;;;;5018640;28;20211;-77
2022/09/21 02:44:28;;;;;;;2.63;1.80;;;10.20;99.90;;;;;;5011079;28;20247;-77
2022/09/21 02:47:01;;;;;;;2.90;1.50;;;10.10;99.90;;;;;;5013935;28;20222;-77
2022/09/21 02:49:34;;;;;;;2.63;1.43;;;10.00;99.90;;;;;;5025747;28;20238;-78
2022/09/21 02:52:06;;;;;;;2.33;1.57;;;10.00;99.90;;;;;;5022694;28;20207;-77
2022/09/21 02:54:35;;;;;;;2.40;1.53;;;10.00;99.90;;;;;;5020104;28;20209;-76
2022/09/21 02:57:04;;;;;;;1.93;1.70;;;9.90;99.90;;;;;;5025978;28;21014;-77
2022/09/21 02:59:31;;;;;;;2.27;1.60;;;9.90;99.90;;;;;;5019155;28;20285;-78
2022/09/21 03:02:01;;;;;;;2.20;1.60;;;9.90;99.90;;;;;;5012987;28;20677;-76
2022/09/21 03:04:28;;;;;;;2.37;1.70;;;9.90;99.90;;;;;;5014616;28;20218;-77
2022/09/21 03:06:55;;;;;;;3.47;1.97;;;9.80;99.90;;;;;;5021454;28;20241;-78
2022/09/21 03:09:23;;;;;;;1.90;1.70;;;9.80;99.90;;;;;;5015105;28;20246;-77
2022/09/21 03:11:50;;;;;;;3.30;1.83;;;9.70;99.90;;;;;;5019173;28;20241;-77
2022/09/21 03:14:18;;;;;;;2.37;1.80;;;9.70;99.90;;;;;;5026032;28;20207;-77
2022/09/21 03:16:45;;;;;;;3.50;1.73;;;9.70;99.90;;;;;;5019473;28;20254;-77
2022/09/21 03:19:14;;;;;;;2.07;1.53;;;9.70;99.90;;;;;;5014835;28;20300;-78
2022/09/21 03:21:41;;;;;;;1.70;1.60;;;9.70;99.90;;;;;;5028908;28;20221;-77
2022/09/21 03:24:08;;;;;;;1.70;1.57;;;9.60;99.90;;;;;;5023819;28;20245;-77
2022/09/21 03:26:35;;;;;;;2.00;1.40;;;9.60;99.90;;;;;;5007550;28;20211;-79
2022/09/21 03:29:03;;;;;;;3.40;1.37;;;9.50;99.90;;;;;;5009120;28;20681;-78
2022/09/21 03:31:31;;;;;;;3.30;1.70;;;9.60;99.90;;;;;;5012698;28;20215;-78
2022/09/21 03:33:58;;;;;;;2.67;1.50;;;9.50;99.90;;;;;;5021621;28;20442;-78
2022/09/21 03:36:26;;;;;;;1.87;1.73;;;9.50;99.90;;;;;;5016511;28;20215;-78
2022/09/21 03:38:53;;;;;;;2.60;1.80;;;9.50;99.90;;;;;;5014899;28;20210;-78
2022/09/21 03:41:21;;;;;;;2.80;1.70;;;9.50;99.90;;;;;;5019466;28;20573;-78
2022/09/21 03:43:48;;;;;;;2.10;1.70;;;9.50;99.90;;;;;;5015413;28;20215;-78
2022/09/21 03:46:15;;;;;;;1.50;1.33;;;9.40;99.90;;;;;;5021570;28;20792;-78
2022/09/21 03:48:46;;;;;;;2.30;1.80;;;9.50;99.90;;;;;;5019183;28;20210;-77
2022/09/21 03:51:13;;;;;;;1.80;1.63;;;9.40;99.90;;;;;;5016354;28;20207;-78
2022/09/21 03:53:41;;;;;;;2.67;1.80;;;9.40;99.90;;;;;;5025753;28;20210;-78
2022/09/21 03:56:08;;;;;;;2.67;1.90;;;9.40;99.90;;;;;;5010672;28;20221;-78
2022/09/21 03:58:35;;;;;;;2.77;1.83;;;9.40;99.90;;;;;;5020730;28;20214;-79
2022/09/21 04:01:02;;;;;;;2.50;2.03;;;9.40;99.90;;;;;;5024636;28;20217;-78
2022/09/21 04:03:29;;;;;;;2.43;1.83;;;9.40;99.90;;;;;;5016460;28;20784;-79
2022/09/21 04:05:56;;;;;;;2.47;2.10;;;9.40;99.90;;;;;;5020511;28;20218;-78
2022/09/21 04:08:23;;;;;;;2.57;2.07;;;9.40;99.90;;;;;;5024150;28;20215;-78
2022/09/21 04:10:51;;;;;;;2.40;2.20;;;9.40;99.90;;;;;;5022964;28;20238;-78
2022/09/21 04:13:18;;;;;;;3.00;2.10;;;9.50;99.90;;;;;;5022687;28;20220;-79
2022/09/21 04:15:45;;;;;;;3.37;2.30;;;9.50;99.90;;;;;;5019746;28;21945;-79
2022/09/21 04:18:12;;;;;;;2.87;1.90;;;9.50;99.90;;;;;;5017393;28;20628;-79
2022/09/21 04:20:40;;;;;;;2.60;2.03;;;9.50;99.90;;;;;;5022756;28;20295;-78
2022/09/21 04:23:08;;;;;;;2.93;2.00;;;9.50;99.90;;;;;;5020633;28;20225;-79
2022/09/21 04:25:34;;;;;;;4.57;2.40;;;9.50;99.90;;;;;;5023936;28;20317;-78
2022/09/21 04:28:03;;;;;;;3.03;1.90;;;9.50;99.90;;;;;;5022825;28;21075;-79
2022/09/21 04:30:32;;;;;;;2.20;2.00;;;9.50;99.90;;;;;;5027025;28;20234;-79
2022/09/21 04:32:59;;;;;;;5.50;2.90;;;9.60;99.90;;;;;;5016113;28;20215;-79
2022/09/21 04:35:25;;;;;;;2.40;2.10;;;9.60;99.90;;;;;;5021338;28;20548;-78
2022/09/21 04:37:55;;;;;;;2.60;2.00;;;9.60;99.90;;;;;;5020449;28;20211;-78
2022/09/21 04:40:22;;;;;;;2.03;1.77;;;9.60;99.90;;;;;;5024122;28;20215;-79
2022/09/21 04:42:52;;;;;;;3.10;2.20;;;9.60;99.90;;;;;;5022639;28;20223;-76
2022/09/21 04:45:21;;;;;;;2.30;2.10;;;9.60;99.90;;;;;;5016318;28;20247;-79
2022/09/21 04:47:48;;;;;;;2.47;2.20;;;9.60;99.90;;;;;;5024620;28;20305;-79
2022/09/21 04:50:15;;;;;;;2.80;1.90;;;9.60;99.90;;;;;;5023871;28;20747;-77
2022/09/21 04:52:42;;;;;;;2.87;2.10;;;9.60;99.90;;;;;;5026334;28;20217;-76
2022/09/21 04:55:09;;;;;;;2.77;2.10;;;9.60;99.90;;;;;;5022198;28;20207;-77
2022/09/21 04:57:37;;;;;;;2.33;2.13;;;9.60;99.90;;;;;;5023729;28;20262;-77
2022/09/21 05:00:06;;;;;;;2.80;1.90;;;9.60;99.90;;;;;;5012344;28;20295;-77
2022/09/21 05:02:34;;;;;;;2.13;1.93;;;9.60;99.90;;;;;;5022477;28;20223;-77
2022/09/21 05:05:01;;;;;;;3.13;2.30;;;9.60;99.90;;;;;;5026438;28;20223;-77
2022/09/21 05:07:28;;;;;;;3.40;2.30;;;9.60;99.90;;;;;;5014292;28;20730;-77
2022/09/21 05:10:02;;;;;;;3.03;2.73;;;9.60;99.90;;;;;;5019502;28;20548;-77
2022/09/21 05:12:30;;;;;;;3.23;2.60;;;9.60;99.90;;;;;;5024668;28;20709;-77
2022/09/21 05:14:56;;;;;;;3.23;2.70;;;9.60;99.90;;;;;;5021811;28;20208;-77
2022/09/21 05:17:23;;;;;;;5.00;2.83;;;9.60;99.90;;;;;;5022377;28;20215;-78
2022/09/21 05:19:52;;;;;;;4.03;2.80;;;9.60;99.90;;;;;;5023266;28;20280;-78
2022/09/21 05:22:20;;;;;;;3.57;2.60;;;9.70;99.90;;;;;;5025089;28;20514;-77
2022/09/21 05:24:47;;;;;;;3.10;2.70;;;9.70;99.90;;;;;;5015186;28;20219;-78
2022/09/21 05:27:14;;;;;;;3.03;2.43;;;9.70;99.90;;;;;;5019998;28;20215;-77
2022/09/21 05:29:41;;;;;;;3.67;2.57;;;9.70;99.90;;;;;;5013118;28;20237;-78
2022/09/21 05:32:16;;;;;;;3.00;2.40;;;9.70;99.90;;;;;;5025888;28;20297;-78
2022/09/21 05:34:56;;;;;;;2.93;2.47;;;9.80;99.90;;;;;;5025823;28;20221;-77
2022/09/21 05:37:44;;;;;;;3.77;2.33;;;9.80;99.90;;;;;;5016693;28;20509;-77
2022/09/21 05:40:12;;;;;;;3.13;2.77;;;9.80;99.90;;;;;;5018257;28;20293;-78
2022/09/21 05:42:39;;;;;;;3.57;2.30;;;9.80;99.90;;;;;;5019492;28;20290;-77
2022/09/21 05:45:08;;;;;;;4.67;2.57;;;9.80;99.90;;;;;;5023925;28;20237;-77
2022/09/21 05:47:39;;;;;;;4.10;2.73;;;9.80;99.90;;;;;;5011112;28;20207;-76
2022/09/21 05:50:34;;;;;;;4.00;2.90;;;9.80;99.90;;;;;;5017037;28;20227;-77
2022/09/21 05:53:14;;;;;;;4.03;2.20;;;9.80;99.90;;;;;;5020746;28;20218;-77
2022/09/21 05:55:49;;;;;;;2.50;2.30;;;9.80;99.90;;;;;;5025055;28;20198;-77
2022/09/21 05:58:23;;;;;;;3.70;3.00;;;9.80;99.90;;;;;;5025346;28;20210;-77
2022/09/21 06:01:03;;;;;;;3.47;3.10;;;9.80;99.90;;;;;;5014893;28;20936;-78
2022/09/21 06:03:34;;;;;;;4.03;3.30;;;9.80;99.90;;;;;;5022387;28;20615;-78
2022/09/21 06:06:03;;;;;;;3.83;2.80;;;9.80;99.90;;;;;;5022389;28;20215;-77
2022/09/21 06:08:30;;;;;;;3.77;2.97;;;9.80;99.90;;;;;;5014931;28;20510;-78
2022/09/21 06:10:57;;;;;;;3.40;3.07;;;9.80;99.90;;;;;;5017895;28;20318;-78
2022/09/21 06:13:25;;;;;;;4.30;2.93;;;9.80;99.90;;;;;;5021527;28;20249;-78
2022/09/21 06:15:52;;;;;;;3.50;2.87;;;9.80;99.90;;;;;;5022197;28;20238;-78
2022/09/21 06:18:19;;;;;;;3.90;2.77;;;9.80;99.90;;;;;;5018622;28;20686;-78
2022/09/21 06:20:46;;;;;;;5.87;3.07;;;9.80;99.90;;;;;;5023796;28;20202;-78
2022/09/21 06:23:15;;;;;;;4.43;3.10;;;9.80;99.90;;;;;;5013056;28;20577;-79
2022/09/21 06:25:42;;;;;;;4.23;2.90;;;9.80;99.90;;;;;;5020444;28;20577;-77
2022/09/21 06:28:10;;;;;;;3.90;2.83;;;9.80;99.90;;;;;;5021184;28;20338;-77
2022/09/21 06:30:39;;;;;;;2.93;2.63;;;9.80;99.90;;;;;;5015535;28;20658;-79
2022/09/21 06:33:07;;;;;;;6.13;3.30;;;9.80;99.90;;;;;;5018713;28;20693;-78
2022/09/21 06:35:35;;;;;;;6.63;4.40;;;9.80;99.90;;;;;;5014285;28;20384;-77
2022/09/21 06:38:05;;;;;;;4.70;3.80;;;9.90;99.90;;;;;;5029228;28;20302;-78
2022/09/21 06:40:35;;;;;;;9.60;4.27;;;9.90;99.90;;;;;;5020793;28;20242;-77
2022/09/21 06:43:03;;;;;;;5.80;4.13;;;9.90;99.90;;;;;;5026675;28;20225;-78
2022/09/21 06:45:31;;;;;;;6.53;4.30;;;10.00;99.90;;;;;;5012213;28;20321;-77
2022/09/21 06:47:58;;;;;;;6.30;4.07;;;10.00;99.90;;;;;;5019271;28;20208;-77
2022/09/21 06:50:25;;;;;;;6.23;4.27;;;10.10;99.90;;;;;;5020589;28;20230;-77
2022/09/21 06:52:52;;;;;;;4.70;4.20;;;10.10;99.90;;;;;;5014545;28;20313;-78
2022/09/21 06:55:19;;;;;;;7.37;4.30;;;10.10;99.90;;;;;;5030851;28;20214;-78
2022/09/21 06:57:48;;;;;;;7.67;4.80;;;10.20;99.90;;;;;;5013495;28;20596;-77
2022/09/21 07:00:15;;;;;;;7.23;4.20;;;10.30;99.90;;;;;;5028664;28;20561;-78
2022/09/21 07:02:45;;;;;;;6.90;4.80;;;10.40;99.90;;;;;;5021128;28;20207;-78
2022/09/21 07:05:13;;;;;;;6.83;4.60;;;10.50;99.90;;;;;;5015020;28;20301;-77
2022/09/21 07:07:40;;;;;;;6.63;4.40;;;10.60;99.90;;;;;;5027824;28;20245;-78
2022/09/21 07:10:08;;;;;;;8.70;4.30;;;10.70;99.90;;;;;;5018962;28;20619;-78
2022/09/21 07:12:35;;;;;;;8.63;4.30;;;10.80;99.90;;;;;;5026032;28;20613;-81
2022/09/21 07:15:05;;;;;;;9.40;4.20;;;10.80;99.90;;;;;;4991742;28;20288;-77
2022/09/21 07:17:32;;;;;;;8.37;3.40;;;10.90;99.90;;;;;;4992629;28;20238;-77
2022/09/21 07:20:00;;;;;;;6.43;3.40;;;11.00;99.90;;;;;;4991590;28;20211;-78
2022/09/21 07:22:28;;;;;;;5.53;3.30;;;11.10;99.90;;;;;;4992501;28;20231;-78
2022/09/21 07:24:56;;;;;;;7.77;2.80;;;11.20;99.90;;;;;;4993043;28;20207;-78
2022/09/21 07:27:23;;;;;;;13.07;3.20;;;11.20;99.90;;;;;;4992271;28;20200;-78
2022/09/21 07:29:50;;;;;;;6.60;2.70;;;11.30;99.90;;;;;;4992538;28;20228;-77
2022/09/21 07:32:19;;;;;;;3.80;2.40;;;11.40;99.90;;;;;;4991690;28;20204;-77
2022/09/21 07:34:46;;;;;;;5.23;2.57;;;11.40;99.90;;;;;;4992320;28;20620;-78
2022/09/21 07:37:13;;;;;;;5.43;2.20;;;11.50;99.90;;;;;;4992226;28;20287;-78
2022/09/21 07:39:41;;;;;;;8.77;2.63;;;11.50;99.90;;;;;;4992674;28;20243;-81
2022/09/21 07:42:08;;;;;;;4.23;2.07;;;11.60;99.90;;;;;;4992218;28;20380;-79
2022/09/21 07:44:35;;;;;;;9.30;2.87;;;11.70;99.90;;;;;;4991915;28;20242;-81
2022/09/21 07:47:02;;;;;;;6.73;2.30;;;11.80;99.90;;;;;;4992503;28;20401;-79
2022/09/21 07:49:30;;;;;;;5.17;2.23;;;11.80;99.90;;;;;;4992083;28;20242;-79
2022/09/21 07:51:57;;;;;;;7.00;2.20;;;11.80;99.90;;;;;;4992573;28;20711;-79
2022/09/21 07:54:24;;;;;;;5.67;2.10;;;11.90;99.90;;;;;;4991623;28;20204;-79
2022/09/21 07:59:32;;;;;;;4.47;2.23;;;12.00;99.90;;;;;;4991679;28;20289;-80
2022/09/21 08:01:59;;;;;;;8.27;2.27;;;12.10;99.90;;;;;;4991385;28;20200;-79
2022/09/21 08:04:26;;;;;;;3.50;1.60;;;12.10;99.90;;;;;;4991968;28;20204;-78
2022/09/21 08:06:54;;;;;;;5.10;2.00;;;12.20;99.90;;;;;;4992184;28;20592;-79
2022/09/21 08:09:21;;;;;;;3.27;1.60;;;12.30;99.90;;;;;;4991561;28;20711;-79
2022/09/21 08:11:50;;;;;;;4.90;1.73;;;12.30;99.90;;;;;;4991962;28;20813;-79
2022/09/21 08:14:19;;;;;;;6.03;1.90;;;12.40;99.90;;;;;;4990969;28;20306;-79
2022/09/21 08:16:46;;;;;;;8.40;2.07;;;12.50;99.90;;;;;;4992039;28;20200;-79
2022/09/21 08:19:14;;;;;;;4.87;1.67;;;12.50;99.90;;;;;;4992247;28;20812;-76
2022/09/21 08:21:41;;;;;;;6.57;2.10;;;12.60;99.90;;;;;;4991680;28;20773;-76
2022/09/21 08:24:10;;;;;;;6.43;2.20;;;12.70;99.90;;;;;;4992043;28;20200;-76
2022/09/21 08:26:36;;;;;;;6.00;2.13;;;12.80;99.90;;;;;;4991949;28;20305;-76
2022/09/21 08:29:05;;;;;;;3.80;1.70;;;12.90;99.90;;;;;;4991405;28;20220;-76
2022/09/21 08:31:32;;;;;;;5.30;1.80;;;13.10;99.90;;;;;;4996382;28;20243;-75
2022/09/21 08:33:59;;;;;;;5.67;1.93;;;13.20;99.90;;;;;;5009015;28;20214;-79
2022/09/21 08:36:26;;;;;;;3.47;1.60;;;13.40;99.90;;;;;;5011188;28;20565;-77
2022/09/21 08:38:55;;;;;;;6.23;2.03;;;13.60;99.90;;;;;;5016717;28;20213;-77
2022/09/21 08:41:29;;;;;;;5.60;1.90;;;13.80;99.90;;;;;;5016286;28;20221;-76
2022/09/21 08:44:00;;;;;;;7.50;1.57;;;13.90;99.90;;;;;;5018812;28;20243;-76
2022/09/21 08:46:31;;;;;;;8.83;1.50;;;14.10;99.90;;;;;;5012781;28;20218;-76
2022/09/21 08:49:04;;;;;;;4.07;1.07;;;14.20;99.90;;;;;;5018775;28;20238;-78
2022/09/21 08:51:36;;;;;;;4.43;1.10;;;14.40;99.90;;;;;;5023690;28;20226;-77
2022/09/21 08:54:12;;;;;;;7.47;1.30;;;14.70;99.90;;;;;;5010411;28;20306;-77
2022/09/21 08:56:40;;;;;;;4.10;1.50;;;14.80;99.90;;;;;;5022806;28;20578;-76
2022/09/21 08:59:12;;;;;;;7.00;1.40;;;14.90;99.90;;;;;;5026041;28;20655;-77
2022/09/21 09:01:51;;;;;;;4.53;1.20;;;15.00;99.90;;;;;;5018509;28;20614;-78
2022/09/21 09:04:40;;;;;;;2.50;1.43;;;15.10;99.90;;;;;;5012926;28;20313;-79
2022/09/21 09:07:22;;;;;;;2.70;1.00;;;15.30;99.90;;;;;;5025131;28;20210;-79
2022/09/21 09:10:12;;;;;;;4.33;1.17;;;15.40;99.90;;;;;;5015005;28;20680;-80
2022/09/21 09:12:54;;;;;;;4.82;1.20;;;15.50;99.90;;;;;;5012720;28;20232;-80
2022/09/21 09:15:35;;;;;;;5.07;1.40;;;15.60;99.90;;;;;;5016781;28;20938;-80
2022/09/21 09:18:09;;;;;;;2.42;1.10;;;15.70;99.90;;;;;;5028374;28;20221;-79
2022/09/21 09:20:39;;;;;;;5.93;1.40;;;15.70;99.90;;;;;;5019485;28;20216;-80
2022/09/21 09:23:12;;;;;;;3.17;0.90;;;15.80;67.00;;;;;;5022336;28;20223;-79
2022/09/21 09:25:42;;;;;;;3.30;1.20;;;15.90;81.70;;;;;;5015018;28;20310;-78
2022/09/21 09:28:28;;;;;;;3.63;1.17;;;16.10;83.90;;;;;;5015786;28;20229;-79
2022/09/21 09:31:02;;;;;;;2.90;0.85;;;16.30;84.80;;;;;;5012588;28;20265;-79
2022/09/21 09:33:38;;;;;;;6.00;1.00;;;16.40;63.30;;;;;;5016799;28;20309;-79
2022/09/21 09:36:06;;;;;;;2.03;0.75;;;16.60;42.50;;;;;;5021599;28;20225;-78
2022/09/21 09:38:38;;;;;;;2.70;1.05;;;16.80;48.70;;;;;;5016431;28;20206;-78
2022/09/21 09:41:26;;;;;;;4.60;0.90;;;17.00;33.70;;;;;;5023445;28;20247;-79
2022/09/21 09:44:07;;;;;;;3.33;1.33;;;17.10;1.00;;;;;;5018343;28;20238;-78
2022/09/21 09:46:47;;;;;;;2.17;1.02;;;17.30;1.00;;;;;;5016540;28;20221;-78
2022/09/21 09:49:26;;;;;;;2.15;0.90;;;17.50;1.00;;;;;;5016874;28;20298;-78
2022/09/21 09:51:53;;;;;;;3.80;1.17;;;17.70;1.00;;;;;;5013680;28;20226;-79
2022/09/21 09:54:24;;;;;;;2.58;0.80;;;17.90;1.00;;;;;;5017034;28;20221;-79
2022/09/21 09:56:51;;;;;;;4.03;0.73;;;18.10;1.00;;;;;;5013874;28;20207;-79
2022/09/21 09:59:30;;;;;;;1.83;0.73;;;18.40;1.00;;;;;;5012904;28;20269;-80
2022/09/21 10:02:02;;;;;;;2.70;1.00;;;18.40;1.00;;;;;;5023166;28;20220;-78
2022/09/21 10:04:29;;;;;;;2.88;0.63;;;18.70;1.00;;;;;;5015450;28;20215;-78
2022/09/21 10:06:56;;;;;;;4.00;1.23;;;18.90;1.00;;;;;;5011952;28;20471;-78
2022/09/21 10:09:26;;;;;;;2.63;0.95;;;19.10;84.10;;;;;;5019596;28;20203;-78
2022/09/21 10:11:56;;;;;;;3.00;0.93;;;19.20;99.90;;;;;;5015640;28;20227;-79
2022/09/21 10:14:26;;;;;;;2.63;0.95;;;19.40;1.00;;;;;;5015634;28;20875;-78
2022/09/21 10:16:55;;;;;;;3.33;0.90;;;19.60;1.00;;;;;;5011824;28;20660;-78
2022/09/21 10:19:25;;;;;;;3.30;1.00;;;19.60;1.00;;;;;;5017614;28;20238;-78
2022/09/21 10:21:56;;;;;;;2.40;0.82;;;19.70;99.90;;;;;;5017169;28;20290;-80
2022/09/21 10:24:25;;;;;;;3.47;0.90;;;19.80;10.90;;;;;;5021950;28;20272;-79
2022/09/21 10:26:55;;;;;;;1.90;0.85;;;19.80;82.20;;;;;;5016996;28;20218;-79
2022/09/21 10:29:40;;;;;;;2.92;0.80;;;20.00;1.00;;;;;;5028122;28;20249;-80
2022/09/21 10:32:21;;;;;;;2.78;0.95;;;20.20;1.00;;;;;;5009024;28;20233;-79
2022/09/21 10:35:18;;;;;;;3.13;1.10;;;20.30;1.00;;;;;;5009858;28;20357;-80
2022/09/21 10:37:47;;;;;;;1.10;0.70;;;20.50;1.00;;;;;;5011837;28;20211;-80
2022/09/21 10:40:26;;;;;;;2.13;0.80;;;20.70;1.00;;;;;;5016236;28;20207;-80
2022/09/21 10:42:57;;;;;;;2.33;0.85;;;20.80;99.90;;;;;;5022434;28;20215;-80
2022/09/21 10:45:27;;;;;;;2.25;1.00;;;20.80;99.90;;;;;;5018033;28;20250;-77
2022/09/21 10:47:57;;;;;;;4.05;1.50;;;20.90;11.50;;;;;;5016707;28;20235;-78
2022/09/21 10:50:27;;;;;;;1.42;0.80;;;20.70;28.60;;;;;;5022870;28;20213;-78
2022/09/21 10:52:59;;;;;;;3.05;1.05;;;20.60;99.90;;;;;;5004456;28;20799;-76
2022/09/21 10:55:29;;;;;;;3.55;1.02;;;20.70;1.00;;;;;;5021274;28;20294;-79
2022/09/21 10:57:57;;;;;;;1.17;0.68;;;20.30;1.00;;;;;;5015689;28;21720;-79
2022/09/21 11:00:34;;;;;;;2.72;0.90;;;20.10;1.00;;;;;;5014990;28;20599;-81
2022/09/21 11:03:06;;;;;;;3.10;1.00;;;19.90;1.00;;;;;;5019588;28;20322;-77
2022/09/21 11:05:36;;;;;;;1.70;0.60;;;19.60;1.00;;;;;;5020195;28;20297;-80
2022/09/21 11:08:11;;;;;;;1.90;0.80;;;19.50;1.00;;;;;;5017880;28;20221;-80
2022/09/21 11:10:46;;;;;;;1.20;0.60;;;19.50;1.00;;;;;;5014309;28;20210;-80
2022/09/21 11:13:28;;;;;;;1.67;0.75;;;19.40;1.00;;;;;;5008846;28;20237;-80
2022/09/21 11:16:02;;;;;;;2.15;0.90;;;19.30;1.00;;;;;;5007743;28;20256;-80
2022/09/21 11:18:40;;;;;;;4.03;1.00;;;19.30;1.00;;;;;;5021148;28;20209;-80
2022/09/21 11:21:15;;;;;;;4.05;1.60;;;19.40;1.00;;;;;;5016810;28;20924;-80
2022/09/21 11:23:52;;;;;;;8.43;2.00;;;19.40;1.00;;;;;;5014010;28;20214;-80
2022/09/21 11:26:25;;;;;;;3.63;1.30;;;19.30;1.00;;;;;;5020373;28;20229;-80
2022/09/21 11:28:58;;;;;;;5.28;1.75;;;19.30;1.00;;;;;;5018357;28;20419;-80
2022/09/21 11:31:43;;;;;;;4.15;1.10;;;19.50;1.00;;;;;;5009029;28;20492;-80
2022/09/21 11:34:55;;;;;;;2.70;1.02;;;19.50;1.00;;;;;;5015569;28;20294;-79
2022/09/21 11:37:35;;;;;;;5.60;1.60;;;19.50;1.00;;;;;;4952592;28;20227;-80
2022/09/21 11:40:16;;;;;;;3.53;1.30;;;19.40;1.00;;;;;;5008275;28;20665;-79
2022/09/21 11:42:54;;;;;;;1.88;0.93;;;19.20;1.00;;;;;;5020987;28;20215;-79
2022/09/21 11:45:33;;;;;;;1.80;0.95;;;19.10;1.00;;;;;;5013709;28;20638;-80
2022/09/21 11:48:15;;;;;;;2.33;1.10;;;19.00;1.00;;;;;;5006067;28;20215;-80
2022/09/21 11:50:53;;;;;;;2.55;1.00;;;18.90;1.00;;;;;;5011479;28;20775;-77
2022/09/21 11:53:34;;;;;;;2.58;1.05;;;18.80;1.00;;;;;;5012973;28;20313;-80
2022/09/21 11:56:15;;;;;;;3.88;1.52;;;18.80;1.00;;;;;;5012987;28;20206;-79
2022/09/21 11:58:51;;;;;;;5.72;1.42;;;18.70;1.00;;;;;;5008746;28;20207;-77
2022/09/21 12:01:42;;;;;;;3.92;1.48;;;18.70;1.00;;;;;;5016152;28;20632;-79
2022/09/21 12:04:27;;;;;;;4.95;1.55;;;18.50;1.00;;;;;;5011530;28;20207;-79
2022/09/21 12:07:12;;;;;;;4.22;1.38;;;18.60;1.00;;;;;;5004994;28;20253;-80
2022/09/21 12:10:17;;;;;;;5.40;1.33;;;18.30;1.00;;;;;;5018281;28;20317;-78
2022/09/21 12:12:52;;;;;;;2.58;1.10;;;18.30;1.00;;;;;;5021648;28;20655;-78
2022/09/21 12:15:24;;;;;;;6.82;1.50;;;18.20;1.00;;;;;;5012330;28;20207;-78
2022/09/21 12:18:01;;;;;;;3.40;1.10;;;18.10;1.00;;;;;;5017098;28;20488;-81
2022/09/21 12:20:37;;;;;;;4.35;1.30;;;18.00;3.60;;;;;;5013038;28;20290;-80
2022/09/21 12:23:12;;;;;;;2.70;1.15;;;18.00;99.90;;;;;;5015061;28;20579;-81
2022/09/21 12:25:44;;;;;;;2.90;1.30;;;18.00;1.00;;;;;;5015431;28;20222;-81
2022/09/21 12:28:17;;;;;;;4.60;1.27;;;18.10;1.00;;;;;;5015107;28;20227;-79
2022/09/21 12:30:49;;;;;;;2.80;1.20;;;17.90;1.00;;;;;;5011528;28;20699;-81
2022/09/21 12:33:26;;;;;;;3.80;1.05;;;17.80;1.00;;;;;;5013007;28;20225;-79
2022/09/21 12:36:00;;;;;;;3.20;1.20;;;17.80;22.70;;;;;;5014573;28;20302;-80
2022/09/21 12:38:30;;;;;;;2.65;0.90;;;17.70;1.00;;;;;;5013850;28;20194;-81
2022/09/21 12:41:05;;;;;;;4.13;0.85;;;17.70;13.30;;;;;;5014423;28;20186;-79
2022/09/21 12:43:39;;;;;;;3.70;1.30;;;17.70;99.90;;;;;;5003997;28;20277;-79
2022/09/21 12:46:13;;;;;;;4.05;1.23;;;17.60;99.90;;;;;;4999214;28;20541;-80
2022/09/21 12:48:41;;;;;;;5.70;1.20;;;17.60;99.90;;;;;;5003770;28;20206;-79
2022/09/21 12:51:14;;;;;;;3.90;1.27;;;17.50;91.60;;;;;;4996454;28;20279;-79
2022/09/21 12:53:46;;;;;;;5.43;1.17;;;17.60;99.90;;;;;;5011241;28;20619;-82
2022/09/21 12:56:22;;;;;;;2.88;1.15;;;17.60;99.90;;;;;;5014778;28;20207;-81
2022/09/21 12:59:10;;;;;;;3.17;1.25;;;17.50;99.90;;;;;;5014490;28;20209;-80
2022/09/21 13:01:43;;;;;;;3.53;1.13;;;17.50;99.90;;;;;;5005209;28;20203;-80
2022/09/21 13:04:26;;;;;;;2.97;1.13;;;17.50;99.90;;;;;;5008436;28;20198;-79
2022/09/21 13:07:23;;;;;;;3.38;1.13;;;17.40;99.90;;;;;;4995298;28;20302;-77
2022/09/21 13:09:51;;;;;;;4.18;1.33;;;17.40;99.90;;;;;;4994435;28;20200;-78
2022/09/21 13:12:21;;;;;;;1.73;1.00;;;17.50;1.00;;;;;;4994884;28;20230;-80
2022/09/21 13:14:51;;;;;;;5.82;1.23;;;17.50;1.00;;;;;;4995085;28;20544;-80
2022/09/21 13:17:23;;;;;;;2.80;1.05;;;17.50;1.00;;;;;;4994730;28;20200;-80
2022/09/21 13:19:59;;;;;;;2.60;0.85;;;17.40;1.00;;;;;;4994604;28;20185;-77